Autoridad de Aeronautica Civil de Panamá


metar




ESTACIONES DESCRIPCION
MPTO (M) 302300Z 25003KT 5000 TSVCSH SCT005 SCT013CB BKN070 26/24 Q1007 RERA RWY DAMP NOSIG TS/PCPN N-NE/NW=  
MPBO (M)  
MPCH (M)  
MPSA (M)  
MPCE (M)  
MPPN (M)302300Z 00000KT 9999 FEW010CB SCT012TCU OVC070 27/24 RMK CB SE/TCU E-S/SW=  
MPSM (M) 010100Z 30004KT 9999 FEW020 25/24 Q1009  
MPJE (M)  
MPPA (M) 010100Z 00000KT 9999 SCT016CB SCT080 25/25 Q1009 RETSRA RWY WET RMK CB E/SW-NW  
MPMG (M) 010100Z 32005KT 9999 SCT015CB SCT080 25/24 Q1009 RERA RWY WET NOSIG RMK CB NE/SE-SW/NW=  
MPDA (M) 010100Z 07002KT 9999 SCT017 SCT120 25/24 Q1009  
MPVR (M) =  
MPWN FUERA DE SERVICIO  
MPOA (M)  
MPMF (M) =  
MPEJ (M) 302200Z 25006KT 9000 -RA BKN015TCU 27/25 Q1010 RWY WET RMK TCU S=  


 

CLIMATICAS

MPTO

30 NOVIEMBRE 2020

 

PCPN (mm)

T° MAX

T° MIN

VIENTO MAX (KT)

HORA

VIENTO PREDOM (KT)

12.5

30.4

24.6

24011KT

2100Z

W 05KT

 

 

CLIMATICAS

MPMG

30 NOVIEMBRE- 2020

PCPN (mm)

T° MAX

T° MIN

VIENTO MAX (KT)

HORA

VIENTO PREDOM (KT)

88.6

30.4

25.1

32013KT

2121Z

NW

 



Contador: 31635